This demonstration page uses our WeatherBlox Daily Observations layout. Learn more.

39.29038, -76.61219

Hourly Observations for July 10, 2015

Temp ( °F °C ) Dew Point ( °F °C ) Humidity (%) Winds ( mph kmh ) Pressure ( in mb ) Visibility ( mi km ) Precip ( " mm )
12:54 am 00:54 Mostly Clear 79 26 70 21 74 74 undefined N/A 29.91 1013 N/A 0 0
1:54 am 01:54 Mostly Clear 79 26 70 21 74 74 undefined N/A 29.91 1013 N/A 0 0
2:54 am 02:54 Mostly Clear 79 26 68 20 70 70 undefined N/A 29.91 1013 N/A 0 0
3:54 am 03:54 undefined 77 25 66 19 69 69 undefined N/A 29.94 1014 N/A 0 0
4:54 am 04:54 undefined 75 24 63 17 65 65 undefined N/A 29.94 1014 N/A 0 0
5:54 am 05:54 Mostly Cloudy 73 23 61 16 65 65 undefined N/A 29.97 1015 N/A 0.68 17.272
6:54 am 06:54 Mostly Sunny 73 23 57 14 57 57 undefined N/A 30 1016 1.25 2.01168 0 0
7:54 am 07:54 Mostly Sunny 73 23 55 13 53 53 undefined N/A 30.03 1017 N/A 0 0
8:54 am 08:54 Partly Cloudy 75 24 57 14 54 54 undefined N/A 30.06 1018 N/A 0 0
9:54 am 09:54 Cloudy 77 25 57 14 51 51 undefined N/A 30.06 1018 N/A 0 0
10:54 am 10:54 Mostly Cloudy 79 26 59 15 51 51 undefined N/A 30.06 1018 N/A 0 0
11:54 am 11:54 Mostly Cloudy 81 27 59 15 48 48 undefined N/A 30.06 1018 N/A 0 0
12:54 pm 12:54 Mostly Cloudy 82 28 57 14 42 42 undefined N/A 30.06 1018 N/A 0 0
1:54 pm 13:54 Mostly Sunny 82 28 57 14 42 42 undefined N/A 30.03 1017 N/A 0 0
2:54 pm 14:54 Mostly Cloudy 84 29 61 16 45 45 undefined N/A 30.06 1018 N/A 0 0
3:54 pm 15:54 Mostly Cloudy 84 29 61 16 45 45 undefined N/A 30.03 1017 N/A 0 0
4:54 pm 16:54 Cloudy 84 29 61 16 45 45 undefined N/A 30 1016 N/A 0 0
5:54 pm 17:54 undefined 84 29 63 17 48 48 undefined N/A 30 1016 N/A 0 0
6:54 pm 18:54 undefined 82 28 63 17 51 51 undefined N/A 30 1016 N/A 0 0
7:54 pm 19:54 Cloudy 82 28 63 17 51 51 undefined N/A 30.03 1017 N/A 0 0
8:54 pm 20:54 Cloudy 82 28 64 18 55 55 undefined N/A 30 1016 N/A 0 0
9:54 pm 21:54 Mostly Cloudy 82 28 63 17 51 51 undefined N/A 30.03 1017 N/A 0 0
10:54 pm 22:54 undefined 81 27 64 18 58 58 undefined N/A 30.03 1017 N/A 0 0
11:54 pm 23:54 undefined 81 27 63 17 54 54 undefined N/A 30.06 1018 N/A 0 0

Powered by AerisWeather